sensor_id;sensor_type;location;lat;lon;timestamp;P1;durP1;ratioP1;P2;durP2;ratioP2
22557;SDS011;11445;53.816;8.902;2022-07-29T00:01:47;7.30;;;2.00;;
22557;SDS011;11445;53.816;8.902;2022-07-29T00:04:14;2.72;;;1.63;;
22557;SDS011;11445;53.816;8.902;2022-07-29T00:06:41;2.63;;;1.73;;
22557;SDS011;11445;53.816;8.902;2022-07-29T00:09:10;1.65;;;1.55;;
22557;SDS011;11445;53.816;8.902;2022-07-29T00:11:37;3.13;;;1.63;;
22557;SDS011;11445;53.816;8.902;2022-07-29T00:14:04;5.18;;;1.90;;
22557;SDS011;11445;53.816;8.902;2022-07-29T00:16:31;1.80;;;1.40;;
22557;SDS011;11445;53.816;8.902;2022-07-29T00:18:59;2.67;;;1.92;;
22557;SDS011;11445;53.816;8.902;2022-07-29T00:21:26;6.00;;;1.70;;
22557;SDS011;11445;53.816;8.902;2022-07-29T00:23:53;8.07;;;2.05;;
22557;SDS011;11445;53.816;8.902;2022-07-29T00:26:21;3.90;;;1.77;;
22557;SDS011;11445;53.816;8.902;2022-07-29T00:28:49;7.13;;;1.85;;
22557;SDS011;11445;53.816;8.902;2022-07-29T00:31:16;3.83;;;1.73;;
22557;SDS011;11445;53.816;8.902;2022-07-29T00:33:43;5.70;;;2.10;;
22557;SDS011;11445;53.816;8.902;2022-07-29T00:36:10;2.47;;;2.28;;
22557;SDS011;11445;53.816;8.902;2022-07-29T00:38:36;3.95;;;1.65;;
22557;SDS011;11445;53.816;8.902;2022-07-29T00:41:04;2.42;;;1.58;;
22557;SDS011;11445;53.816;8.902;2022-07-29T00:43:32;5.40;;;1.90;;
22557;SDS011;11445;53.816;8.902;2022-07-29T00:45:59;3.00;;;1.80;;
22557;SDS011;11445;53.816;8.902;2022-07-29T00:48:26;3.70;;;1.55;;
22557;SDS011;11445;53.816;8.902;2022-07-29T00:50:53;2.83;;;1.52;;
22557;SDS011;11445;53.816;8.902;2022-07-29T00:53:22;3.90;;;2.00;;
22557;SDS011;11445;53.816;8.902;2022-07-29T00:55:50;5.45;;;1.75;;
22557;SDS011;11445;53.816;8.902;2022-07-29T00:58:19;8.07;;;2.00;;
22557;SDS011;11445;53.816;8.902;2022-07-29T01:00:48;4.40;;;1.92;;
22557;SDS011;11445;53.816;8.902;2022-07-29T01:03:15;3.83;;;1.70;;
22557;SDS011;11445;53.816;8.902;2022-07-29T01:05:43;2.55;;;1.98;;
22557;SDS011;11445;53.816;8.902;2022-07-29T01:08:12;3.75;;;2.20;;
22557;SDS011;11445;53.816;8.902;2022-07-29T01:10:41;6.45;;;2.10;;
22557;SDS011;11445;53.816;8.902;2022-07-29T01:13:13;3.72;;;2.03;;
22557;SDS011;11445;53.816;8.902;2022-07-29T01:15:43;3.25;;;1.98;;
22557;SDS011;11445;53.816;8.902;2022-07-29T01:18:14;6.40;;;2.22;;
22557;SDS011;11445;53.816;8.902;2022-07-29T01:20:53;3.15;;;1.90;;
22557;SDS011;11445;53.816;8.902;2022-07-29T01:23:41;5.57;;;2.00;;
22557;SDS011;11445;53.816;8.902;2022-07-29T01:26:24;8.45;;;2.05;;
22557;SDS011;11445;53.816;8.902;2022-07-29T01:29:02;5.53;;;2.10;;
22557;SDS011;11445;53.816;8.902;2022-07-29T01:31:33;6.20;;;2.83;;
22557;SDS011;11445;53.816;8.902;2022-07-29T01:34:08;7.10;;;2.22;;
22557;SDS011;11445;53.816;8.902;2022-07-29T01:36:43;8.75;;;2.38;;
22557;SDS011;11445;53.816;8.902;2022-07-29T01:39:14;6.53;;;2.20;;
22557;SDS011;11445;53.816;8.902;2022-07-29T01:41:50;4.03;;;2.30;;
22557;SDS011;11445;53.816;8.902;2022-07-29T01:44:34;3.28;;;2.50;;
22557;SDS011;11445;53.816;8.902;2022-07-29T01:47:12;4.72;;;2.22;;
22557;SDS011;11445;53.816;8.902;2022-07-29T01:49:46;3.33;;;2.05;;
22557;SDS011;11445;53.816;8.902;2022-07-29T01:52:19;5.60;;;2.25;;
22557;SDS011;11445;53.816;8.902;2022-07-29T01:54:51;3.92;;;2.40;;
22557;SDS011;11445;53.816;8.902;2022-07-29T01:57:21;6.03;;;2.17;;
22557;SDS011;11445;53.816;8.902;2022-07-29T01:59:55;2.25;;;2.00;;
22557;SDS011;11445;53.816;8.902;2022-07-29T02:02:24;3.55;;;1.85;;
22557;SDS011;11445;53.816;8.902;2022-07-29T02:04:54;2.58;;;1.88;;
22557;SDS011;11445;53.816;8.902;2022-07-29T02:07:22;5.80;;;2.25;;
22557;SDS011;11445;53.816;8.902;2022-07-29T02:09:54;5.20;;;2.00;;
22557;SDS011;11445;53.816;8.902;2022-07-29T02:12:22;4.22;;;1.90;;
22557;SDS011;11445;53.816;8.902;2022-07-29T02:14:52;5.45;;;1.73;;
22557;SDS011;11445;53.816;8.902;2022-07-29T02:17:23;4.97;;;1.90;;
22557;SDS011;11445;53.816;8.902;2022-07-29T02:20:05;3.20;;;1.60;;
22557;SDS011;11445;53.816;8.902;2022-07-29T02:22:35;4.38;;;1.60;;
22557;SDS011;11445;53.816;8.902;2022-07-29T02:25:05;5.43;;;1.98;;
22557;SDS011;11445;53.816;8.902;2022-07-29T02:27:34;4.07;;;1.75;;
22557;SDS011;11445;53.816;8.902;2022-07-29T02:30:05;3.88;;;2.20;;
22557;SDS011;11445;53.816;8.902;2022-07-29T02:32:35;7.13;;;2.05;;
22557;SDS011;11445;53.816;8.902;2022-07-29T02:35:05;5.63;;;1.80;;
22557;SDS011;11445;53.816;8.902;2022-07-29T02:37:35;3.60;;;1.75;;
22557;SDS011;11445;53.816;8.902;2022-07-29T02:40:03;6.95;;;1.83;;
22557;SDS011;11445;53.816;8.902;2022-07-29T02:42:32;4.60;;;1.75;;
22557;SDS011;11445;53.816;8.902;2022-07-29T02:45:02;3.75;;;1.73;;
22557;SDS011;11445;53.816;8.902;2022-07-29T02:47:34;4.55;;;1.75;;
22557;SDS011;11445;53.816;8.902;2022-07-29T02:50:04;4.25;;;2.28;;
22557;SDS011;11445;53.816;8.902;2022-07-29T02:52:37;12.20;;;2.10;;
22557;SDS011;11445;53.816;8.902;2022-07-29T02:55:10;2.20;;;1.75;;
22557;SDS011;11445;53.816;8.902;2022-07-29T02:57:42;3.90;;;1.60;;
22557;SDS011;11445;53.816;8.902;2022-07-29T03:00:14;6.85;;;1.88;;
22557;SDS011;11445;53.816;8.902;2022-07-29T03:02:43;4.03;;;1.73;;
22557;SDS011;11445;53.816;8.902;2022-07-29T03:05:14;2.17;;;1.50;;
22557;SDS011;11445;53.816;8.902;2022-07-29T03:07:51;5.30;;;1.93;;
22557;SDS011;11445;53.816;8.902;2022-07-29T03:10:21;2.90;;;2.00;;
22557;SDS011;11445;53.816;8.902;2022-07-29T03:12:49;4.43;;;2.20;;
22557;SDS011;11445;53.816;8.902;2022-07-29T03:15:18;6.03;;;2.15;;
22557;SDS011;11445;53.816;8.902;2022-07-29T03:17:46;2.67;;;2.28;;
22557;SDS011;11445;53.816;8.902;2022-07-29T03:20:13;4.72;;;2.92;;
22557;SDS011;11445;53.816;8.902;2022-07-29T03:22:41;4.20;;;2.67;;
22557;SDS011;11445;53.816;8.902;2022-07-29T03:25:12;4.70;;;3.30;;
22557;SDS011;11445;53.816;8.902;2022-07-29T03:27:40;6.82;;;3.00;;
22557;SDS011;11445;53.816;8.902;2022-07-29T03:30:08;7.57;;;3.17;;
22557;SDS011;11445;53.816;8.902;2022-07-29T03:32:37;6.43;;;3.20;;
22557;SDS011;11445;53.816;8.902;2022-07-29T03:35:05;7.00;;;3.50;;
22557;SDS011;11445;53.816;8.902;2022-07-29T03:37:34;6.85;;;3.20;;
22557;SDS011;11445;53.816;8.902;2022-07-29T03:40:02;4.85;;;3.30;;
22557;SDS011;11445;53.816;8.902;2022-07-29T03:42:31;6.53;;;3.30;;
22557;SDS011;11445;53.816;8.902;2022-07-29T03:45:03;4.45;;;3.25;;
22557;SDS011;11445;53.816;8.902;2022-07-29T03:47:34;7.85;;;3.22;;
22557;SDS011;11445;53.816;8.902;2022-07-29T03:50:06;8.23;;;3.33;;
22557;SDS011;11445;53.816;8.902;2022-07-29T03:52:36;4.10;;;2.50;;
22557;SDS011;11445;53.816;8.902;2022-07-29T03:55:04;7.70;;;2.95;;
22557;SDS011;11445;53.816;8.902;2022-07-29T03:57:33;7.28;;;3.03;;
22557;SDS011;11445;53.816;8.902;2022-07-29T04:00:03;7.75;;;3.13;;
22557;SDS011;11445;53.816;8.902;2022-07-29T04:02:31;7.57;;;2.70;;
22557;SDS011;11445;53.816;8.902;2022-07-29T04:04:58;5.53;;;2.63;;
22557;SDS011;11445;53.816;8.902;2022-07-29T04:07:27;5.65;;;2.70;;
22557;SDS011;11445;53.816;8.902;2022-07-29T04:09:54;4.68;;;2.58;;
22557;SDS011;11445;53.816;8.902;2022-07-29T04:12:22;8.18;;;2.60;;
22557;SDS011;11445;53.816;8.902;2022-07-29T04:14:49;6.57;;;2.30;;
22557;SDS011;11445;53.816;8.902;2022-07-29T04:17:16;5.35;;;2.17;;
22557;SDS011;11445;53.816;8.902;2022-07-29T04:19:43;5.03;;;2.63;;
22557;SDS011;11445;53.816;8.902;2022-07-29T04:22:10;7.70;;;2.60;;
22557;SDS011;11445;53.816;8.902;2022-07-29T04:24:39;4.25;;;2.15;;
22557;SDS011;11445;53.816;8.902;2022-07-29T04:27:06;5.78;;;2.20;;
22557;SDS011;11445;53.816;8.902;2022-07-29T04:29:33;3.97;;;2.15;;
22557;SDS011;11445;53.816;8.902;2022-07-29T04:32:00;5.88;;;2.60;;
22557;SDS011;11445;53.816;8.902;2022-07-29T04:34:27;3.50;;;2.30;;
22557;SDS011;11445;53.816;8.902;2022-07-29T04:36:55;2.78;;;1.85;;
22557;SDS011;11445;53.816;8.902;2022-07-29T04:39:22;4.18;;;1.95;;
22557;SDS011;11445;53.816;8.902;2022-07-29T04:41:50;8.77;;;2.15;;
22557;SDS011;11445;53.816;8.902;2022-07-29T04:44:17;6.78;;;2.33;;
22557;SDS011;11445;53.816;8.902;2022-07-29T04:46:45;3.03;;;2.17;;
22557;SDS011;11445;53.816;8.902;2022-07-29T04:49:12;5.32;;;1.92;;
22557;SDS011;11445;53.816;8.902;2022-07-29T04:51:39;9.95;;;2.55;;
22557;SDS011;11445;53.816;8.902;2022-07-29T04:54:06;3.17;;;2.45;;
22557;SDS011;11445;53.816;8.902;2022-07-29T04:56:33;6.82;;;2.83;;
22557;SDS011;11445;53.816;8.902;2022-07-29T04:59:02;4.97;;;2.28;;
22557;SDS011;11445;53.816;8.902;2022-07-29T05:01:29;4.35;;;2.00;;
22557;SDS011;11445;53.816;8.902;2022-07-29T05:03:56;4.43;;;2.30;;
22557;SDS011;11445;53.816;8.902;2022-07-29T05:06:23;7.40;;;2.15;;
22557;SDS011;11445;53.816;8.902;2022-07-29T05:08:50;5.57;;;2.22;;
22557;SDS011;11445;53.816;8.902;2022-07-29T05:11:18;5.40;;;2.10;;
22557;SDS011;11445;53.816;8.902;2022-07-29T05:13:45;6.88;;;2.38;;
22557;SDS011;11445;53.816;8.902;2022-07-29T05:16:13;6.10;;;2.60;;
22557;SDS011;11445;53.816;8.902;2022-07-29T05:18:40;5.10;;;2.00;;
22557;SDS011;11445;53.816;8.902;2022-07-29T05:21:07;8.88;;;2.28;;
22557;SDS011;11445;53.816;8.902;2022-07-29T05:23:35;6.22;;;2.03;;
22557;SDS011;11445;53.816;8.902;2022-07-29T05:26:02;4.57;;;1.80;;
22557;SDS011;11445;53.816;8.902;2022-07-29T05:28:29;7.60;;;2.15;;
22557;SDS011;11445;53.816;8.902;2022-07-29T05:30:59;2.97;;;2.10;;
22557;SDS011;11445;53.816;8.902;2022-07-29T05:33:28;7.05;;;2.60;;
22557;SDS011;11445;53.816;8.902;2022-07-29T05:35:55;14.05;;;2.10;;
22557;SDS011;11445;53.816;8.902;2022-07-29T05:38:22;4.20;;;2.00;;
22557;SDS011;11445;53.816;8.902;2022-07-29T05:40:49;6.25;;;2.13;;
22557;SDS011;11445;53.816;8.902;2022-07-29T05:43:16;5.25;;;2.50;;
22557;SDS011;11445;53.816;8.902;2022-07-29T05:45:44;2.47;;;2.00;;
22557;SDS011;11445;53.816;8.902;2022-07-29T05:48:11;3.13;;;1.98;;
22557;SDS011;11445;53.816;8.902;2022-07-29T05:50:39;7.03;;;2.28;;
22557;SDS011;11445;53.816;8.902;2022-07-29T05:53:07;9.02;;;2.15;;
22557;SDS011;11445;53.816;8.902;2022-07-29T05:55:34;5.43;;;2.13;;
22557;SDS011;11445;53.816;8.902;2022-07-29T05:58:01;3.70;;;2.22;;
22557;SDS011;11445;53.816;8.902;2022-07-29T06:00:28;4.95;;;1.88;;
22557;SDS011;11445;53.816;8.902;2022-07-29T06:02:56;2.78;;;2.10;;
22557;SDS011;11445;53.816;8.902;2022-07-29T06:05:23;8.98;;;2.08;;
22557;SDS011;11445;53.816;8.902;2022-07-29T06:07:52;2.58;;;1.75;;
22557;SDS011;11445;53.816;8.902;2022-07-29T06:10:19;2.45;;;2.00;;
22557;SDS011;11445;53.816;8.902;2022-07-29T06:12:46;3.88;;;2.17;;
22557;SDS011;11445;53.816;8.902;2022-07-29T06:15:13;3.70;;;2.30;;
22557;SDS011;11445;53.816;8.902;2022-07-29T06:17:40;8.40;;;2.45;;
22557;SDS011;11445;53.816;8.902;2022-07-29T06:20:08;4.63;;;1.98;;
22557;SDS011;11445;53.816;8.902;2022-07-29T06:22:36;6.40;;;2.20;;
22557;SDS011;11445;53.816;8.902;2022-07-29T06:25:05;3.05;;;2.30;;
22557;SDS011;11445;53.816;8.902;2022-07-29T06:27:33;7.13;;;2.25;;
22557;SDS011;11445;53.816;8.902;2022-07-29T06:30:00;11.43;;;2.83;;
22557;SDS011;11445;53.816;8.902;2022-07-29T06:32:27;5.82;;;2.08;;
22557;SDS011;11445;53.816;8.902;2022-07-29T06:34:56;3.20;;;1.92;;
22557;SDS011;11445;53.816;8.902;2022-07-29T06:37:23;6.68;;;2.58;;
22557;SDS011;11445;53.816;8.902;2022-07-29T06:39:50;4.60;;;2.40;;
22557;SDS011;11445;53.816;8.902;2022-07-29T06:42:42;6.07;;;2.00;;
22557;SDS011;11445;53.816;8.902;2022-07-29T06:45:10;6.40;;;1.90;;
22557;SDS011;11445;53.816;8.902;2022-07-29T06:47:38;3.33;;;2.00;;
22557;SDS011;11445;53.816;8.902;2022-07-29T06:50:05;7.75;;;2.20;;
22557;SDS011;11445;53.816;8.902;2022-07-29T06:52:36;4.43;;;2.20;;
22557;SDS011;11445;53.816;8.902;2022-07-29T06:55:03;3.83;;;1.90;;
22557;SDS011;11445;53.816;8.902;2022-07-29T06:57:31;9.02;;;2.22;;
22557;SDS011;11445;53.816;8.902;2022-07-29T06:59:59;4.43;;;2.30;;
22557;SDS011;11445;53.816;8.902;2022-07-29T07:02:29;9.30;;;2.95;;
22557;SDS011;11445;53.816;8.902;2022-07-29T07:04:57;3.80;;;2.05;;
22557;SDS011;11445;53.816;8.902;2022-07-29T07:07:24;3.65;;;2.00;;
22557;SDS011;11445;53.816;8.902;2022-07-29T07:09:51;7.07;;;2.63;;
22557;SDS011;11445;53.816;8.902;2022-07-29T07:12:19;5.40;;;2.15;;
22557;SDS011;11445;53.816;8.902;2022-07-29T07:14:46;4.28;;;2.40;;
22557;SDS011;11445;53.816;8.902;2022-07-29T07:17:14;5.55;;;2.65;;
22557;SDS011;11445;53.816;8.902;2022-07-29T07:19:42;2.25;;;1.90;;
22557;SDS011;11445;53.816;8.902;2022-07-29T07:22:10;9.45;;;2.33;;
22557;SDS011;11445;53.816;8.902;2022-07-29T07:24:37;4.97;;;2.67;;
22557;SDS011;11445;53.816;8.902;2022-07-29T07:27:04;8.32;;;2.13;;
22557;SDS011;11445;53.816;8.902;2022-07-29T07:29:32;12.00;;;2.25;;
22557;SDS011;11445;53.816;8.902;2022-07-29T07:31:59;6.53;;;2.53;;
22557;SDS011;11445;53.816;8.902;2022-07-29T07:34:28;3.72;;;2.25;;
22557;SDS011;11445;53.816;8.902;2022-07-29T07:36:56;7.68;;;2.80;;
22557;SDS011;11445;53.816;8.902;2022-07-29T07:39:23;5.47;;;2.05;;
22557;SDS011;11445;53.816;8.902;2022-07-29T07:41:51;3.90;;;2.25;;
22557;SDS011;11445;53.816;8.902;2022-07-29T07:44:18;7.20;;;2.40;;
22557;SDS011;11445;53.816;8.902;2022-07-29T07:46:45;7.53;;;2.45;;
22557;SDS011;11445;53.816;8.902;2022-07-29T07:49:12;5.50;;;2.20;;
22557;SDS011;11445;53.816;8.902;2022-07-29T07:51:41;4.75;;;2.25;;
22557;SDS011;11445;53.816;8.902;2022-07-29T07:54:09;8.63;;;2.45;;
22557;SDS011;11445;53.816;8.902;2022-07-29T07:56:36;10.77;;;2.55;;
22557;SDS011;11445;53.816;8.902;2022-07-29T07:59:03;7.47;;;2.40;;
22557;SDS011;11445;53.816;8.902;2022-07-29T08:01:30;6.13;;;2.10;;
22557;SDS011;11445;53.816;8.902;2022-07-29T08:03:58;7.95;;;2.40;;
22557;SDS011;11445;53.816;8.902;2022-07-29T08:06:25;7.85;;;2.42;;
22557;SDS011;11445;53.816;8.902;2022-07-29T08:08:54;8.38;;;2.30;;
22557;SDS011;11445;53.816;8.902;2022-07-29T08:11:21;5.25;;;2.33;;
22557;SDS011;11445;53.816;8.902;2022-07-29T08:13:48;7.45;;;2.20;;
22557;SDS011;11445;53.816;8.902;2022-07-29T08:16:15;4.72;;;2.40;;
22557;SDS011;11445;53.816;8.902;2022-07-29T08:18:43;6.47;;;2.40;;
22557;SDS011;11445;53.816;8.902;2022-07-29T08:21:12;6.22;;;2.20;;
22557;SDS011;11445;53.816;8.902;2022-07-29T08:23:39;5.38;;;2.13;;
22557;SDS011;11445;53.816;8.902;2022-07-29T08:26:12;7.07;;;2.45;;
22557;SDS011;11445;53.816;8.902;2022-07-29T08:28:40;5.35;;;2.45;;
22557;SDS011;11445;53.816;8.902;2022-07-29T08:31:10;4.78;;;2.20;;
22557;SDS011;11445;53.816;8.902;2022-07-29T08:33:38;2.42;;;1.98;;
22557;SDS011;11445;53.816;8.902;2022-07-29T08:36:05;11.60;;;2.65;;
22557;SDS011;11445;53.816;8.902;2022-07-29T08:38:33;4.28;;;2.58;;
22557;SDS011;11445;53.816;8.902;2022-07-29T08:41:01;4.45;;;2.50;;
22557;SDS011;11445;53.816;8.902;2022-07-29T08:43:29;7.55;;;2.40;;
22557;SDS011;11445;53.816;8.902;2022-07-29T08:45:57;5.47;;;3.08;;
22557;SDS011;11445;53.816;8.902;2022-07-29T08:48:24;7.45;;;2.60;;
22557;SDS011;11445;53.816;8.902;2022-07-29T08:50:52;5.78;;;2.40;;
22557;SDS011;11445;53.816;8.902;2022-07-29T08:53:21;5.85;;;2.17;;
22557;SDS011;11445;53.816;8.902;2022-07-29T08:55:51;7.75;;;2.30;;
22557;SDS011;11445;53.816;8.902;2022-07-29T08:58:19;8.20;;;2.40;;
22557;SDS011;11445;53.816;8.902;2022-07-29T09:00:50;7.43;;;2.97;;
22557;SDS011;11445;53.816;8.902;2022-07-29T09:03:19;9.25;;;2.63;;
22557;SDS011;11445;53.816;8.902;2022-07-29T09:05:48;8.88;;;2.50;;
22557;SDS011;11445;53.816;8.902;2022-07-29T09:08:16;6.20;;;2.38;;
22557;SDS011;11445;53.816;8.902;2022-07-29T09:10:44;4.55;;;2.13;;
22557;SDS011;11445;53.816;8.902;2022-07-29T09:13:11;5.55;;;2.38;;
22557;SDS011;11445;53.816;8.902;2022-07-29T09:15:38;8.07;;;2.75;;
22557;SDS011;11445;53.816;8.902;2022-07-29T09:18:07;9.07;;;2.72;;
22557;SDS011;11445;53.816;8.902;2022-07-29T09:20:34;8.77;;;2.67;;
22557;SDS011;11445;53.816;8.902;2022-07-29T09:23:19;5.93;;;2.55;;
22557;SDS011;11445;53.816;8.902;2022-07-29T09:25:47;5.57;;;2.30;;
22557;SDS011;11445;53.816;8.902;2022-07-29T09:28:14;7.28;;;2.40;;
22557;SDS011;11445;53.816;8.902;2022-07-29T09:30:49;5.07;;;2.35;;
22557;SDS011;11445;53.816;8.902;2022-07-29T09:33:19;2.58;;;2.35;;
22557;SDS011;11445;53.816;8.902;2022-07-29T09:35:57;6.22;;;2.63;;
22557;SDS011;11445;53.816;8.902;2022-07-29T09:38:26;7.65;;;2.40;;
22557;SDS011;11445;53.816;8.902;2022-07-29T09:40:55;8.45;;;2.55;;
22557;SDS011;11445;53.816;8.902;2022-07-29T09:43:23;4.45;;;2.25;;
22557;SDS011;11445;53.816;8.902;2022-07-29T09:45:50;6.50;;;1.98;;
22557;SDS011;11445;53.816;8.902;2022-07-29T09:48:19;6.10;;;2.30;;
22557;SDS011;11445;53.816;8.902;2022-07-29T09:50:47;10.65;;;2.72;;
22557;SDS011;11445;53.816;8.902;2022-07-29T09:53:29;5.55;;;2.58;;
22557;SDS011;11445;53.816;8.902;2022-07-29T09:55:57;3.97;;;2.03;;
22557;SDS011;11445;53.816;8.902;2022-07-29T09:58:24;4.05;;;2.22;;
22557;SDS011;11445;53.816;8.902;2022-07-29T10:00:53;4.53;;;2.40;;
22557;SDS011;11445;53.816;8.902;2022-07-29T10:03:22;9.48;;;2.20;;
22557;SDS011;11445;53.816;8.902;2022-07-29T10:06:04;2.72;;;2.15;;
22557;SDS011;11445;53.816;8.902;2022-07-29T10:08:32;4.68;;;2.25;;
22557;SDS011;11445;53.816;8.902;2022-07-29T10:11:08;7.82;;;2.35;;
22557;SDS011;11445;53.816;8.902;2022-07-29T10:13:37;6.97;;;2.63;;
22557;SDS011;11445;53.816;8.902;2022-07-29T10:16:05;26.90;;;3.42;;
22557;SDS011;11445;53.816;8.902;2022-07-29T10:18:34;3.40;;;2.20;;
22557;SDS011;11445;53.816;8.902;2022-07-29T10:21:04;6.30;;;2.30;;
22557;SDS011;11445;53.816;8.902;2022-07-29T10:23:31;4.97;;;2.47;;
22557;SDS011;11445;53.816;8.902;2022-07-29T10:25:59;2.75;;;2.25;;
22557;SDS011;11445;53.816;8.902;2022-07-29T10:28:28;8.63;;;2.45;;
22557;SDS011;11445;53.816;8.902;2022-07-29T10:30:58;6.53;;;2.20;;
22557;SDS011;11445;53.816;8.902;2022-07-29T10:33:33;7.13;;;2.43;;
22557;SDS011;11445;53.816;8.902;2022-07-29T10:39:05;6.95;;;2.17;;
22557;SDS011;11445;53.816;8.902;2022-07-29T10:41:47;4.07;;;2.75;;
22557;SDS011;11445;53.816;8.902;2022-07-29T10:44:25;4.82;;;2.25;;
22557;SDS011;11445;53.816;8.902;2022-07-29T10:46:54;5.43;;;2.22;;
22557;SDS011;11445;53.816;8.902;2022-07-29T10:49:23;5.10;;;2.15;;
22557;SDS011;11445;53.816;8.902;2022-07-29T10:51:58;3.72;;;1.60;;
22557;SDS011;11445;53.816;8.902;2022-07-29T10:54:36;5.70;;;2.25;;
22557;SDS011;11445;53.816;8.902;2022-07-29T10:57:11;9.32;;;2.30;;
22557;SDS011;11445;53.816;8.902;2022-07-29T10:59:46;4.32;;;2.03;;
22557;SDS011;11445;53.816;8.902;2022-07-29T11:05:14;7.75;;;2.50;;
22557;SDS011;11445;53.816;8.902;2022-07-29T11:10:52;8.10;;;2.08;;
22557;SDS011;11445;53.816;8.902;2022-07-29T11:13:50;7.70;;;2.03;;
22557;SDS011;11445;53.816;8.902;2022-07-29T11:16:20;5.25;;;2.30;;
22557;SDS011;11445;53.816;8.902;2022-07-29T11:21:49;7.68;;;2.10;;
22557;SDS011;11445;53.816;8.902;2022-07-29T11:24:18;9.77;;;2.38;;
22557;SDS011;11445;53.816;8.902;2022-07-29T11:29:39;5.22;;;2.10;;
22557;SDS011;11445;53.816;8.902;2022-07-29T11:32:14;7.50;;;2.05;;
22557;SDS011;11445;53.816;8.902;2022-07-29T11:34:44;4.00;;;1.90;;
22557;SDS011;11445;53.816;8.902;2022-07-29T11:37:17;6.53;;;1.73;;
22557;SDS011;11445;53.816;8.902;2022-07-29T11:39:47;3.90;;;1.67;;
22557;SDS011;11445;53.816;8.902;2022-07-29T11:42:37;10.80;;;2.03;;
22557;SDS011;11445;53.816;8.902;2022-07-29T11:45:09;8.15;;;1.77;;
22557;SDS011;11445;53.816;8.902;2022-07-29T11:47:40;3.13;;;1.73;;
22557;SDS011;11445;53.816;8.902;2022-07-29T11:50:14;4.95;;;1.58;;
22557;SDS011;11445;53.816;8.902;2022-07-29T11:52:45;5.43;;;1.63;;
22557;SDS011;11445;53.816;8.902;2022-07-29T11:55:14;4.70;;;1.88;;
22557;SDS011;11445;53.816;8.902;2022-07-29T11:57:46;3.17;;;1.90;;
22557;SDS011;11445;53.816;8.902;2022-07-29T12:00:20;4.82;;;1.90;;
22557;SDS011;11445;53.816;8.902;2022-07-29T12:02:50;4.57;;;1.90;;
22557;SDS011;11445;53.816;8.902;2022-07-29T12:05:18;4.68;;;2.08;;
22557;SDS011;11445;53.816;8.902;2022-07-29T12:07:47;6.43;;;2.30;;
22557;SDS011;11445;53.816;8.902;2022-07-29T12:10:15;8.00;;;2.10;;
22557;SDS011;11445;53.816;8.902;2022-07-29T12:12:42;3.03;;;1.95;;
22557;SDS011;11445;53.816;8.902;2022-07-29T12:15:17;7.97;;;2.85;;
22557;SDS011;11445;53.816;8.902;2022-07-29T12:17:46;7.47;;;1.77;;
22557;SDS011;11445;53.816;8.902;2022-07-29T12:20:14;4.90;;;1.73;;
22557;SDS011;11445;53.816;8.902;2022-07-29T12:22:50;5.18;;;2.00;;
22557;SDS011;11445;53.816;8.902;2022-07-29T12:25:20;5.35;;;1.70;;
22557;SDS011;11445;53.816;8.902;2022-07-29T12:27:56;6.57;;;1.70;;
22557;SDS011;11445;53.816;8.902;2022-07-29T12:30:33;11.25;;;2.30;;
22557;SDS011;11445;53.816;8.902;2022-07-29T12:33:12;6.30;;;2.08;;
22557;SDS011;11445;53.816;8.902;2022-07-29T12:35:41;6.18;;;2.25;;
22557;SDS011;11445;53.816;8.902;2022-07-29T12:38:12;2.63;;;1.75;;
22557;SDS011;11445;53.816;8.902;2022-07-29T12:40:40;3.65;;;1.73;;
22557;SDS011;11445;53.816;8.902;2022-07-29T12:43:09;5.97;;;2.38;;
22557;SDS011;11445;53.816;8.902;2022-07-29T12:45:38;3.65;;;1.73;;
22557;SDS011;11445;53.816;8.902;2022-07-29T12:48:06;4.60;;;1.77;;
22557;SDS011;11445;53.816;8.902;2022-07-29T12:50:35;4.53;;;1.52;;
22557;SDS011;11445;53.816;8.902;2022-07-29T12:53:19;4.03;;;2.03;;
22557;SDS011;11445;53.816;8.902;2022-07-29T12:55:47;5.03;;;1.70;;
22557;SDS011;11445;53.816;8.902;2022-07-29T12:58:26;3.58;;;1.48;;
22557;SDS011;11445;53.816;8.902;2022-07-29T13:01:07;3.72;;;1.70;;
22557;SDS011;11445;53.816;8.902;2022-07-29T13:03:43;4.72;;;1.58;;
22557;SDS011;11445;53.816;8.902;2022-07-29T13:06:35;5.25;;;1.83;;
22557;SDS011;11445;53.816;8.902;2022-07-29T13:09:15;4.65;;;1.63;;
22557;SDS011;11445;53.816;8.902;2022-07-29T13:11:43;4.20;;;1.77;;
22557;SDS011;11445;53.816;8.902;2022-07-29T13:14:11;11.57;;;1.80;;
22557;SDS011;11445;53.816;8.902;2022-07-29T13:19:33;4.38;;;1.50;;
22557;SDS011;11445;53.816;8.902;2022-07-29T13:22:01;6.22;;;1.73;;
22557;SDS011;11445;53.816;8.902;2022-07-29T13:24:31;6.10;;;1.45;;
22557;SDS011;11445;53.816;8.902;2022-07-29T13:26:58;4.30;;;1.60;;
22557;SDS011;11445;53.816;8.902;2022-07-29T13:29:25;2.58;;;1.60;;
22557;SDS011;11445;53.816;8.902;2022-07-29T13:31:52;3.95;;;1.50;;
22557;SDS011;11445;53.816;8.902;2022-07-29T13:34:20;6.53;;;1.60;;
22557;SDS011;11445;53.816;8.902;2022-07-29T13:36:49;3.28;;;1.40;;
22557;SDS011;11445;53.816;8.902;2022-07-29T13:39:16;5.68;;;1.50;;
22557;SDS011;11445;53.816;8.902;2022-07-29T13:41:44;5.25;;;1.25;;
22557;SDS011;11445;53.816;8.902;2022-07-29T13:44:12;6.60;;;1.23;;
22557;SDS011;11445;53.816;8.902;2022-07-29T13:46:39;5.63;;;1.55;;
22557;SDS011;11445;53.816;8.902;2022-07-29T13:49:06;6.25;;;1.45;;
22557;SDS011;11445;53.816;8.902;2022-07-29T13:51:33;4.40;;;1.50;;
22557;SDS011;11445;53.816;8.902;2022-07-29T13:54:00;4.70;;;1.50;;
22557;SDS011;11445;53.816;8.902;2022-07-29T13:56:27;7.43;;;1.60;;
22557;SDS011;11445;53.816;8.902;2022-07-29T13:58:56;1.65;;;1.33;;
22557;SDS011;11445;53.816;8.902;2022-07-29T14:01:23;3.13;;;1.40;;
22557;SDS011;11445;53.816;8.902;2022-07-29T14:03:51;2.97;;;1.20;;
22557;SDS011;11445;53.816;8.902;2022-07-29T14:06:18;3.00;;;1.25;;
22557;SDS011;11445;53.816;8.902;2022-07-29T14:08:45;2.28;;;1.23;;
22557;SDS011;11445;53.816;8.902;2022-07-29T14:11:12;3.28;;;1.25;;
22557;SDS011;11445;53.816;8.902;2022-07-29T14:13:40;5.45;;;1.50;;
22557;SDS011;11445;53.816;8.902;2022-07-29T14:16:08;2.88;;;1.27;;
22557;SDS011;11445;53.816;8.902;2022-07-29T14:18:35;2.95;;;1.40;;
22557;SDS011;11445;53.816;8.902;2022-07-29T14:21:02;6.47;;;1.90;;
22557;SDS011;11445;53.816;8.902;2022-07-29T14:23:29;5.50;;;1.40;;
22557;SDS011;11445;53.816;8.902;2022-07-29T14:25:57;5.47;;;1.50;;
22557;SDS011;11445;53.816;8.902;2022-07-29T14:28:24;4.93;;;1.70;;
22557;SDS011;11445;53.816;8.902;2022-07-29T14:30:51;7.22;;;1.58;;
22557;SDS011;11445;53.816;8.902;2022-07-29T14:33:20;5.50;;;1.38;;
22557;SDS011;11445;53.816;8.902;2022-07-29T14:35:47;5.10;;;1.40;;
22557;SDS011;11445;53.816;8.902;2022-07-29T14:38:14;5.97;;;1.42;;
22557;SDS011;11445;53.816;8.902;2022-07-29T14:40:41;1.70;;;1.45;;
22557;SDS011;11445;53.816;8.902;2022-07-29T14:43:08;4.70;;;1.42;;
22557;SDS011;11445;53.816;8.902;2022-07-29T14:45:35;6.18;;;1.55;;
22557;SDS011;11445;53.816;8.902;2022-07-29T14:48:02;5.05;;;1.60;;
22557;SDS011;11445;53.816;8.902;2022-07-29T14:50:31;4.25;;;1.40;;
22557;SDS011;11445;53.816;8.902;2022-07-29T14:52:58;3.00;;;1.48;;
22557;SDS011;11445;53.816;8.902;2022-07-29T14:55:26;6.07;;;1.38;;
22557;SDS011;11445;53.816;8.902;2022-07-29T14:57:53;2.53;;;1.25;;
22557;SDS011;11445;53.816;8.902;2022-07-29T15:00:20;2.55;;;1.30;;
22557;SDS011;11445;53.816;8.902;2022-07-29T15:02:48;3.05;;;1.50;;
22557;SDS011;11445;53.816;8.902;2022-07-29T15:05:15;3.20;;;1.60;;
22557;SDS011;11445;53.816;8.902;2022-07-29T15:07:44;7.95;;;1.70;;
22557;SDS011;11445;53.816;8.902;2022-07-29T15:10:11;1.83;;;1.30;;
22557;SDS011;11445;53.816;8.902;2022-07-29T15:12:38;11.75;;;1.50;;
22557;SDS011;11445;53.816;8.902;2022-07-29T15:15:06;2.70;;;1.20;;
22557;SDS011;11445;53.816;8.902;2022-07-29T15:17:33;3.13;;;1.60;;
22557;SDS011;11445;53.816;8.902;2022-07-29T15:20:00;4.75;;;1.27;;